Terminal Aerodrome Forecast
Issued by NWS Wilmington, OH

Current Version | Previous Version | Graphics & Text | Print | Product List | Glossary On
Versions: 1 2 3 4 5 6 7 8 9 10 11 12 13 14 15 16 17 18 19 20 21 22 23 24 25 26
000
FTUS41 KILN 222100 AAA
TAFDAY
TAF AMD
KDAY 222115Z 2221/2318 34008KT P6SM VCSH BKN035
     FM230000 31005KT P6SM SCT020 BKN250
     FM230700 VRB03KT 5SM BR SCT010 BKN250
     FM231000 VRB03KT 4SM BR BKN008
     FM231400 08004KT P6SM SCT020=

USA.gov is the U.S. government's official web portal to all federal, state and local government web resources and services.